Terminal Aerodrome Forecast
Issued by NWS

Home | Current Version | Previous Version | Text Only | Print | Product List | Glossary On
Versions: 1 2 3 4 5 6 7 8 9 10 11 12 13 14 15 16 17 18
000
FTUS43 KGRB 181200 AAA
TAFATW
TAF AMD
KATW 181246Z 1813/1912 34006KT P6SM BKN020
     FM181330 34005KT P6SM SCT020
     FM181600 36008KT P6SM SCT040 SCT100
     FM182200 04008KT P6SM SCT100
     FM190000 10006KT P6SM SCT100
      TEMPO 1908/1912 BKN100=

USA.gov is the U.S. government's official web portal to all federal, state and local government web resources and services.